^^
Grace C. Lehan Memorial Weather Station Historical Data
Daily Summary for August 31, 2021 Units:  English    Metric   Both
Daily Weekly Monthly Yearly
  High: Low: Average:
Temperature: 63.1 °F 47.8 °F 55.7 °F
Dew Point: 54.6 °F 46.7 °F 51.5 °F
Humidity: 99.5% 71% 86%
Wind Speed: 7.6mph 0mph 1.5mph
Wind Gust: 20mph - -
Wind- - WNW
Pressure: 30.19 in 30.09 in -
Precipitation: 0.00 in    
 
 
Tabular Data for August 31, 2021
Time Temperature Dew Point Pressure Wind Wind Speed Wind Gust Humidity Rainfall Rate (Hourly) solar
00:04 47.8 °F 46.7 °F 30.12 in Calm   1 mph 96% 0.16 in 0 W/m2
00:09 47.8 °F 46.7 °F 30.12 in NW 1.3 mph 10 mph 96% 0.17 in 0 W/m2
00:14 47.8 °F 46.8 °F 30.12 in NW 0.5 mph 10 mph 96% 0.17 in 0 W/m2
00:19 47.8 °F 46.8 °F 30.12 in North 0.9 mph 10 mph 96% 0.17 in 0 W/m2
00:24 47.9 °F 46.8 °F 30.11 in North 0.8 mph 10 mph 96% 0.18 in 0 W/m2
00:28 47.9 °F 46.8 °F 30.11 in NNE 0.4 mph 10 mph 96% 0.18 in 0 W/m2
00:30 47.8 °F 46.7 °F 30.11 in NW 1 mph 10 mph 96% 0.04 in 0 W/m2
02:00 47.8 °F 47 °F 30.10 in NNW 1 mph 12 mph 97% 0.09 in 0 W/m2
02:30 47.8 °F 47 °F 30.10 in North 1 mph 13 mph 97% 0.08 in 0 W/m2
03:00 47.9 °F 47.1 °F 30.10 in NW 1 mph 9 mph 97% 0.07 in 0 W/m2
03:30 48.1 °F 47.3 °F 30.10 in North 1 mph 10 mph 97% 0.06 in 0 W/m2
04:04 48.2 °F 47.9 °F 30.10 in Calm   1 mph 98.8% 0.17 in 0 W/m2
04:09 48.2 °F 47.9 °F 30.10 in North 1.2 mph 6 mph 98.8% 0.17 in 0 W/m2
04:14 48.2 °F 48.1 °F 30.10 in NW 0.5 mph 6 mph 99.5% 0.17 in 0 W/m2
04:19 48.2 °F 47.5 °F 30.09 in NNW 1.1 mph 7 mph 97.2% 0.18 in 0 W/m2
04:24 48.2 °F 47.7 °F 30.10 in NW 1.9 mph 11 mph 98% 0.18 in 0 W/m2
04:29 48.2 °F 47.4 °F 30.10 in NNW 0.6 mph 11 mph 97% 0.18 in 0 W/m2
04:34 48.3 °F 47.5 °F 30.09 in NW 1.5 mph 11 mph 97% 0.18 in 0 W/m2
04:39 48.3 °F 47.5 °F 30.10 in NNW 0.8 mph 7 mph 97% 0.15 in 0 W/m2
04:44 48.3 °F 47.5 °F 30.10 in North 0.1 mph 7 mph 97% 0.15 in 0 W/m2
04:49 48.3 °F 47.5 °F 30.11 in North 1.3 mph 9 mph 97% 0.15 in 0 W/m2
04:54 48.3 °F 47.5 °F 30.11 in NNE 0.4 mph 9 mph 97% 0.15 in 0 W/m2
04:59 48.4 °F 47.6 °F 30.11 in North 1.1 mph 9 mph 97% 0.15 in 0 W/m2
05:04 48.4 °F 47.6 °F 30.11 in NNW 1.2 mph 9 mph 97% 0.15 in 0 W/m2
05:09 48.4 °F 47.6 °F 30.10 in NW 0.1 mph 7 mph 97% 0.02 in 0 W/m2
05:14 48.5 °F 47.7 °F 30.10 in NW 0.6 mph 8 mph 97% 0.02 in 0 W/m2
05:19 48.5 °F 47.7 °F 30.10 in NNW 0.3 mph 8 mph 97% 0.02 in 0 W/m2
05:24 48.5 °F 47.7 °F 30.10 in North 0.8 mph 8 mph 97% 0.02 in 0 W/m2
05:29 48.5 °F 47.7 °F 30.11 in NNW 1.1 mph 8 mph 97% 0.03 in 0 W/m2
05:34 48.5 °F 47.7 °F 30.11 in NNW 0.7 mph 8 mph 97% 0.03 in 0 W/m2
05:39 48.5 °F 47.7 °F 30.11 in NW 1.1 mph 9 mph 97% 0.03 in 0 W/m2
05:44 48.6 °F 47.8 °F 30.11 in North 0.5 mph 9 mph 97% 0.03 in 5 W/m2
05:49 48.6 °F 47.8 °F 30.12 in NW 1.6 mph 9 mph 97% 0.03 in 7 W/m2
05:54 48.6 °F 47.8 °F 30.12 in NNW 1.1 mph 9 mph 97% 0.03 in 9 W/m2
05:59 48.7 °F 47.9 °F 30.12 in WNW 1.3 mph 9 mph 97% 0.03 in 11 W/m2
06:04 48.7 °F 47.9 °F 30.12 in West 1.1 mph 9 mph 97% 0.03 in 11 W/m2
06:09 48.7 °F 47.9 °F 30.12 in NW 0.6 mph 6 mph 97% 0.02 in 16 W/m2
06:14 48.8 °F 48 °F 30.12 in NW 0.7 mph 6 mph 97% 0.02 in 23 W/m2
06:19 48.8 °F 48 °F 30.12 in NW 0.5 mph 6 mph 97% 0.02 in 33 W/m2
06:24 48.9 °F 48.1 °F 30.12 in NNW 0.9 mph 6 mph 97% 0.02 in 46 W/m2
06:29 49 °F 48.1 °F 30.12 in NE 0.2 mph 6 mph 97% 0.02 in 56 W/m2
06:34 49 °F 48.2 °F 30.12 in NW 0.1 mph 6 mph 97% 0.02 in 62 W/m2
06:39 49.2 °F 48.4 °F 30.11 in NE 0.9 mph 7 mph 97% 0.01 in 63 W/m2
06:44 49.2 °F 48.4 °F 30.12 in NW 0.4 mph 7 mph 97% 0.01 in 69 W/m2
06:49 49.3 °F 48.5 °F 30.12 in NW 0.1 mph 7 mph 97% 0.01 in 67 W/m2
06:54 49.4 °F 48.6 °F 30.12 in NNW 1.5 mph 7 mph 97% 0.01 in 83 W/m2
06:59 49.5 °F 48.7 °F 30.12 in NW 0.3 mph 7 mph 97% 0.01 in 74 W/m2
07:04 49.6 °F 48.8 °F 30.13 in NNW 0.8 mph 7 mph 97% 0.01 in 72 W/m2
07:09 49.7 °F 48.9 °F 30.13 in NNE 0.7 mph 7 mph 97% 0.01 in 74 W/m2
07:14 49.7 °F 48.9 °F 30.13 in NNE 0.3 mph 7 mph 97% 0.01 in 53 W/m2
07:19 49.9 °F 49.1 °F 30.14 in NNW 0.6 mph 7 mph 97% 0.01 in 56 W/m2
07:24 49.9 °F 49.1 °F 30.14 in West 0.5 mph 7 mph 97% 0.01 in 49 W/m2
07:29 49.9 °F 49.1 °F 30.14 in WNW 1.4 mph 7 mph 97% 0.01 in 51 W/m2
07:34 49.9 °F 49.1 °F 30.14 in NW 0.7 mph 7 mph 97% 0.01 in 53 W/m2
07:39 50 °F 49.2 °F 30.14 in NW 1.8 mph 5 mph 97% 0.01 in 53 W/m2
07:44 50 °F 49.2 °F 30.15 in WNW 0.8 mph 6 mph 97% 0.01 in 54 W/m2
07:49 50 °F 49.2 °F 30.15 in NNW 1.1 mph 7 mph 97% 0.01 in 60 W/m2
07:54 50.1 °F 49.3 °F 30.15 in NW 0.7 mph 7 mph 97% 0.01 in 77 W/m2
07:59 50.1 °F 49.3 °F 30.15 in NW 1.3 mph 7 mph 97% 0.01 in 77 W/m2
08:04 50.2 °F 49.4 °F 30.14 in North 0.7 mph 5 mph 97% 0.01 in 74 W/m2
08:09 50.3 °F 49.5 °F 30.14 in North 0.7 mph 5 mph 97% 0.01 in 104 W/m2
08:14 50.4 °F 49.6 °F 30.14 in Calm   5 mph 97% 0.01 in 149 W/m2
08:19 50.5 °F 49.7 °F 30.13 in Calm   5 mph 97% 0.01 in 237 W/m2
08:24 50.8 °F 50 °F 30.13 in North 0.6 mph 5 mph 97% 0.01 in 285 W/m2
08:29 51.5 °F 50.7 °F 30.13 in NW 0.3 mph 5 mph 97% 0.01 in 315 W/m2
08:34 52.1 °F 51.3 °F 30.14 in NNE 0.3 mph 5 mph 97% 0.01 in 299 W/m2
08:39 52.5 °F 51.6 °F 30.13 in North 0.4 mph 4 mph 97% 0.00 in 260 W/m2
08:44 52.4 °F 51.5 °F 30.14 in NW 0.9 mph 7 mph 97% 0.00 in 206 W/m2
08:49 52.2 °F 51.4 °F 30.14 in NNW 1.9 mph 7 mph 97% 0.00 in 204 W/m2
08:54 52.1 °F 51.3 °F 30.14 in NW 1.7 mph 10 mph 97% 0.00 in 216 W/m2
08:59 52.1 °F 51.3 °F 30.14 in North 1.3 mph 10 mph 97% 0.00 in 216 W/m2
09:04 52.3 °F 51.4 °F 30.14 in NNW 0.1 mph 10 mph 97% 0.00 in 174 W/m2
09:09 52.3 °F 51.5 °F 30.14 in NW 2.1 mph 9 mph 97% 0.00 in 165 W/m2
09:14 52.2 °F 51.4 °F 30.14 in NW 1.8 mph 9 mph 97% 0.00 in 163 W/m2
09:19 52.2 °F 51.4 °F 30.14 in NW 0.3 mph 9 mph 97% 0.00 in 162 W/m2
09:24 52.3 °F 51.5 °F 30.14 in NW 2.4 mph 16 mph 97% 0.00 in 169 W/m2
09:29 52.2 °F 51.3 °F 30.14 in NNW 0.9 mph 16 mph 96.5% 0.00 in 163 W/m2
09:34 52.4 °F 51.4 °F 30.14 in NNW 1.1 mph 16 mph 96.5% 0.00 in 163 W/m2
09:39 52.6 °F 51.7 °F 30.14 in NW 2.3 mph 10 mph 96.7% 0.00 in 209 W/m2
09:44 52.6 °F 51.5 °F 30.13 in NNW 0.8 mph 10 mph 96% 0.00 in 211 W/m2
09:49 52.8 °F 51.7 °F 30.13 in NW 2 mph 10 mph 96% 0.00 in 204 W/m2
09:54 53 °F 51.8 °F 30.13 in NW 1 mph 10 mph 96% 0.00 in 306 W/m2
09:59 53.1 °F 52 °F 30.12 in NNW 1.2 mph 10 mph 96% 0.00 in 432 W/m2
10:04 53.5 °F 52.4 °F 30.13 in NNW 0.3 mph 10 mph 96% 0.00 in 462 W/m2
10:09 54 °F 52.8 °F 30.13 in NNW 2.1 mph 11 mph 96% 0.00 in 304 W/m2
10:14 54.1 °F 52.7 °F 30.13 in WNW 1.4 mph 11 mph 95% 0.00 in 287 W/m2
10:19 54.3 °F 52.7 °F 30.14 in NW 0.7 mph 11 mph 94.2% 0.00 in 199 W/m2
10:24 54.5 °F 52.8 °F 30.14 in WNW 1.5 mph 11 mph 94% 0.00 in 197 W/m2
10:29 54.7 °F 53 °F 30.14 in West 0.5 mph 11 mph 94% 0.00 in 202 W/m2
10:34 54.9 °F 53.1 °F 30.13 in Calm   11 mph 93.8% 0.00 in 229 W/m2
10:39 55 °F 53 °F 30.13 in NNW 0.9 mph 5 mph 93% 0.00 in 230 W/m2
10:44 55.1 °F 53.1 °F 30.14 in North 1 mph 6 mph 93% 0.00 in 230 W/m2
10:49 55.2 °F 52.9 °F 30.14 in WNW 1.3 mph 6 mph 92% 0.00 in 197 W/m2
10:54 55.3 °F 52.7 °F 30.14 in WNW 0.6 mph 6 mph 91.2% 0.00 in 121 W/m2
10:59 55.3 °F 52.7 °F 30.14 in WNW 0.5 mph 6 mph 91% 0.00 in 88 W/m2
11:04 55.2 °F 52.7 °F 30.14 in WNW 1 mph 6 mph 91% 0.00 in 155 W/m2
11:09 55.2 °F 52.6 °F 30.14 in West 1.2 mph 9 mph 91% 0.00 in 155 W/m2
11:14 55.1 °F 52.5 °F 30.14 in West 1.2 mph 9 mph 91% 0.00 in 239 W/m2
11:19 55.1 °F 52.6 °F 30.13 in WNW 2.7 mph 9 mph 91% 0.00 in 246 W/m2
11:24 55.2 °F 52.4 °F 30.14 in WNW 1.4 mph 9 mph 90.3% 0.00 in 169 W/m2
11:29 55.3 °F 52.4 °F 30.14 in West 0.8 mph 9 mph 90% 0.00 in 120 W/m2
11:34 55.3 °F 52.3 °F 30.14 in WNW 3.6 mph 10 mph 89.7% 0.00 in 213 W/m2
11:39 55.2 °F 52.1 °F 30.14 in WNW 2.9 mph 10 mph 89% 0.00 in 156 W/m2
11:44 55.3 °F 52 °F 30.14 in WNW 4.8 mph 13 mph 88.8% 0.00 in 144 W/m2
11:49 55.2 °F 51.8 °F 30.14 in WNW 1.4 mph 13 mph 88.2% 0.00 in 121 W/m2
11:54 55.3 °F 52.1 °F 30.15 in WNW 2.2 mph 13 mph 89% 0.00 in 128 W/m2
11:59 55.3 °F 52.1 °F 30.15 in WNW 2.3 mph 13 mph 88.8% 0.00 in 132 W/m2
12:00 55.3 °F 51.8 °F 30.14 in West 5 mph 13 mph 88% 0.00 in 130 W/m2
12:09 55.3 °F 51.9 °F 30.15 in WNW 1.5 mph 10 mph 88.3% 0.00 in 156 W/m2
12:14 55.4 °F 52.3 °F 30.15 in WNW 4 mph 10 mph 89% 0.00 in 183 W/m2
12:19 55.5 °F 52.3 °F 30.14 in WNW 3.5 mph 10 mph 89% 0.00 in 207 W/m2
12:24 55.6 °F 52.6 °F 30.15 in West 0.5 mph 10 mph 89.5% 0.00 in 207 W/m2
12:29 55.8 °F 52.9 °F 30.15 in West 0.6 mph 10 mph 90% 0.00 in 257 W/m2
12:34 55.9 °F 53 °F 30.14 in WNW 3.1 mph 10 mph 90% 0.00 in 294 W/m2
12:39 56 °F 52.9 °F 30.14 in WNW 2.4 mph 9 mph 89.2% 0.00 in 295 W/m2
12:44 56.3 °F 53.2 °F 30.14 in WNW 1.4 mph 9 mph 89.3% 0.00 in 274 W/m2
12:49 56.6 °F 53.7 °F 30.14 in West 2.4 mph 12 mph 89.9% 0.00 in 258 W/m2
12:54 56.8 °F 53.6 °F 30.14 in NW 2.1 mph 12 mph 89% 0.00 in 290 W/m2
12:59 56.8 °F 53.3 °F 30.14 in WNW 3.8 mph 12 mph 88.1% 0.00 in 276 W/m2
13:04 56.8 °F 52.9 °F 30.14 in WNW 5.2 mph 12 mph 86.8% 0.00 in 295 W/m2
13:09 56.8 °F 52.6 °F 30.14 in WNW 6.1 mph 13 mph 86% 0.00 in 410 W/m2
13:14 56.9 °F 52.8 °F 30.14 in WNW 4.4 mph 13 mph 86.3% 0.00 in 415 W/m2
13:19 57.1 °F 53 °F 30.14 in WNW 6 mph 14 mph 86% 0.00 in 557 W/m2
13:24 57.4 °F 53.1 °F 30.14 in WNW 5.5 mph 14 mph 85.8% 0.00 in 707 W/m2
13:29 57.9 °F 53.5 °F 30.13 in WNW 3.6 mph 14 mph 85.4% 0.00 in 744 W/m2
13:34 58.5 °F 53.5 °F 30.13 in WNW 5.7 mph 15 mph 83.5% 0.00 in 559 W/m2
13:39 59 °F 53.9 °F 30.12 in NW 4.5 mph 15 mph 83.2% 0.00 in 979 W/m2
13:44 59.5 °F 53.6 °F 30.12 in WNW 5.6 mph 15 mph 80.7% 0.00 in 979 W/m2
13:49 59.8 °F 53.4 °F 30.12 in NW 7.6 mph 20 mph 79.5% 0.00 in 594 W/m2
13:54 59.7 °F 53.2 °F 30.12 in NW 6.3 mph 20 mph 79% 0.00 in 504 W/m2
13:59 59.8 °F 53.6 °F 30.12 in NW 1.6 mph 20 mph 79.7% 0.00 in 582 W/m2
14:04 60.1 °F 53.8 °F 30.12 in NW 3.5 mph 20 mph 79.6% 0.00 in 747 W/m2
14:09 60.4 °F 54.1 °F 30.12 in NW 2.3 mph 12 mph 79.6% 0.00 in 772 W/m2
14:14 60.9 °F 54.4 °F 30.12 in WNW 2.5 mph 13 mph 79% 0.00 in 534 W/m2
14:19 61.4 °F 54.6 °F 30.12 in WNW 2.8 mph 15 mph 78.3% 0.00 in 534 W/m2
14:24 61.6 °F 53.7 °F 30.12 in WNW 2.6 mph 15 mph 75.4% 0.00 in 512 W/m2
14:29 61.5 °F 53.5 °F 30.12 in West 2.8 mph 15 mph 75% 0.00 in 392 W/m2
14:34 61.5 °F 53.5 °F 30.12 in WNW 2.7 mph 15 mph 75% 0.00 in 392 W/m2
14:39 61.5 °F 53.7 °F 30.12 in NW 2.5 mph 10 mph 75.7% 0.00 in 274 W/m2
14:44 61.4 °F 53.7 °F 30.12 in WNW 3.2 mph 14 mph 75.7% 0.00 in 178 W/m2
14:49 61.1 °F 53.2 °F 30.13 in WNW 5.7 mph 16 mph 75.2% 0.00 in 181 W/m2
14:54 60.8 °F 52.9 °F 30.13 in West 3.4 mph 16 mph 75.2% 0.00 in 146 W/m2
14:59 60.4 °F 52.9 °F 30.12 in West 2.7 mph 16 mph 76% 0.00 in 262 W/m2
15:04 60.3 °F 53 °F 30.12 in WNW 0.9 mph 16 mph 76.9% 0.00 in 316 W/m2
15:09 60.4 °F 53.3 °F 30.13 in West 2.5 mph 11 mph 77.5% 0.00 in 294 W/m2
15:14 60.5 °F 53.2 °F 30.13 in WNW 2.6 mph 11 mph 76.9% 0.00 in 257 W/m2
15:19 60.6 °F 53.2 °F 30.13 in WNW 4.9 mph 12 mph 76.5% 0.00 in 197 W/m2
15:24 60.5 °F 53 °F 30.13 in WNW 5.7 mph 14 mph 76.3% 0.00 in 130 W/m2
15:29 60.3 °F 53 °F 30.13 in WNW 2.7 mph 14 mph 76.8% 0.00 in 155 W/m2
15:34 60 °F 52.5 °F 30.13 in WNW 4.4 mph 17 mph 76.2% 0.00 in 269 W/m2
15:39 60 °F 52.6 °F 30.13 in NW 4.2 mph 17 mph 76.5% 0.00 in 315 W/m2
15:44 60.2 °F 52.6 °F 30.13 in NW 4.4 mph 17 mph 75.8% 0.00 in 306 W/m2
15:49 60.6 °F 53.1 °F 30.14 in WNW 0.9 mph 17 mph 76.4% 0.00 in 304 W/m2
15:50 60.9 °F 53.7 °F 30.13 in WNW 5.3 mph 17 mph 77% 0.00 in 232 W/m2
16:09 60.8 °F 52.5 °F 30.14 in NW 3.3 mph 10 mph 74% 0.00 in 323 W/m2
16:14 60.8 °F 53 °F 30.14 in NW 1.1 mph 10 mph 75.4% 0.00 in 346 W/m2
16:19 61.1 °F 53.1 °F 30.14 in NW 2.4 mph 10 mph 75.1% 0.00 in 271 W/m2
16:24 61.3 °F 53.1 °F 30.13 in NW 2.2 mph 16 mph 74.5% 0.00 in 156 W/m2
16:29 61.2 °F 52.5 °F 30.13 in NW 5.4 mph 16 mph 73% 0.00 in 153 W/m2
16:34 61.1 °F 52.4 °F 30.14 in NW 2.9 mph 16 mph 73.1% 0.00 in 207 W/m2
16:39 61 °F 52.4 °F 30.13 in NW 2.6 mph 14 mph 73.3% 0.00 in 230 W/m2
16:44 61.1 °F 52.5 °F 30.14 in NW 1.2 mph 14 mph 73.5% 0.00 in 214 W/m2
16:49 61.2 °F 53 °F 30.14 in NW 2.5 mph 14 mph 74.2% 0.00 in 199 W/m2
16:54 61.3 °F 52.7 °F 30.13 in NW 2.3 mph 14 mph 73.3% 0.00 in 192 W/m2
16:59 61.4 °F 52.8 °F 30.13 in NW 0.8 mph 14 mph 73.4% 0.00 in 232 W/m2
17:04 61.6 °F 53.4 °F 30.13 in WNW 2.2 mph 14 mph 74.3% 0.00 in 135 W/m2
17:09 62 °F 53.6 °F 30.13 in WNW 3.3 mph 11 mph 73.9% 0.00 in 70 W/m2
17:14 62.4 °F 53 °F 30.13 in WNW 3.8 mph 14 mph 71.4% 0.00 in 234 W/m2
17:19 62.7 °F 53.6 °F 30.13 in NW 1.7 mph 14 mph 72.1% 0.00 in 234 W/m2
17:24 63 °F 53.8 °F 30.14 in WNW 3.4 mph 14 mph 71.9% 0.00 in 197 W/m2
17:29 63.1 °F 53.5 °F 30.14 in West 1.6 mph 14 mph 71% 0.00 in 192 W/m2
17:34 63 °F 53.6 °F 30.14 in WNW 0.5 mph 14 mph 71.5% 0.00 in 169 W/m2
17:39 62.9 °F 53.8 °F 30.14 in Calm   4 mph 72.2% 0.00 in 174 W/m2
17:44 62.9 °F 54.3 °F 30.15 in NW 0.9 mph 6 mph 73.3% 0.00 in 121 W/m2
17:49 62.9 °F 53.9 °F 30.15 in WNW 1.5 mph 7 mph 72.3% 0.00 in 32 W/m2
17:54 62.8 °F 53.8 °F 30.15 in NW 1 mph 7 mph 72.4% 0.00 in 60 W/m2
17:59 62.7 °F 53.8 °F 30.15 in WNW 2 mph 7 mph 72.6% 0.00 in 53 W/m2
18:04 62.7 °F 53.7 °F 30.15 in NNW 0.5 mph 7 mph 72.5% 0.00 in 39 W/m2
18:09 62.7 °F 53.7 °F 30.15 in NNW 1 mph 4 mph 72.3% 0.00 in 35 W/m2
18:14 62.8 °F 53.7 °F 30.15 in NNW 0.3 mph 4 mph 72.3% 0.00 in 35 W/m2
18:19 62.9 °F 53.8 °F 30.15 in NW 1.3 mph 6 mph 72.2% 0.00 in 37 W/m2
18:24 63 °F 53.8 °F 30.15 in WNW 2.7 mph 6 mph 72% 0.00 in 37 W/m2
18:29 63.1 °F 53.8 °F 30.15 in WSW 1 mph 10 mph 71.6% 0.00 in 35 W/m2
18:34 63.1 °F 53.8 °F 30.15 in West 0.8 mph 10 mph 71.5% 0.00 in 33 W/m2
18:39 63.1 °F 53.9 °F 30.15 in WNW 0.4 mph 7 mph 71.8% 0.00 in 32 W/m2
18:44 63.1 °F 53.7 °F 30.15 in NNW 0.6 mph 7 mph 71.3% 0.00 in 32 W/m2
18:49 63 °F 53.5 °F 30.15 in NW 1.1 mph 8 mph 71.2% 0.00 in 30 W/m2
18:54 63 °F 53.5 °F 30.15 in Calm   8 mph 71.1% 0.00 in 30 W/m2
18:59 62.9 °F 53.8 °F 30.15 in NW 0.4 mph 8 mph 72% 0.00 in 28 W/m2
19:04 62.9 °F 53.8 °F 30.15 in NW 0.1 mph 8 mph 72% 0.00 in 28 W/m2
19:09 62.9 °F 53.8 °F 30.15 in Calm   2 mph 72% 0.00 in 26 W/m2
19:14 62.9 °F 53.5 °F 30.15 in NW 0.1 mph 2 mph 71.5% 0.00 in 26 W/m2
19:19 62.8 °F 53.4 °F 30.15 in Calm   2 mph 71.3% 0.00 in 25 W/m2
19:24 62.8 °F 53.2 °F 30.15 in Calm   2 mph 71% 0.00 in 23 W/m2
19:29 62.7 °F 53.5 °F 30.15 in Calm   2 mph 71.8% 0.00 in 23 W/m2
19:34 62.7 °F 53.5 °F 30.15 in Calm   2 mph 72% 0.00 in 21 W/m2
19:39 62.6 °F 53.7 °F 30.15 in Calm     72.7% 0.00 in 19 W/m2
19:44 62.5 °F 53.4 °F 30.16 in Calm     72.1% 0.00 in 18 W/m2
19:49 62.3 °F 53.4 °F 30.16 in Calm     72.5% 0.00 in 16 W/m2
19:54 62.2 °F 53.5 °F 30.15 in Calm     73% 0.00 in 12 W/m2
19:59 62 °F 53.3 °F 30.15 in Calm     73% 0.00 in 9 W/m2
20:00 62 °F 53.3 °F 30.15 in Calm     73% 0.00 in 5 W/m2
20:09 61.6 °F 53.3 °F 30.16 in Calm     74.1% 0.00 in 0 W/m2
20:14 61.3 °F 53.3 °F 30.16 in Calm     75% 0.00 in 0 W/m2
20:19 61.1 °F 53.1 °F 30.16 in Calm     75% 0.00 in 0 W/m2
20:24 60.8 °F 53.2 °F 30.16 in Calm     76% 0.00 in 0 W/m2
20:29 60.4 °F 53.2 °F 30.16 in Calm     77% 0.00 in 0 W/m2
20:34 60 °F 53.1 °F 30.16 in Calm     77.9% 0.00 in 0 W/m2
20:39 59.5 °F 53 °F 30.16 in Calm     79% 0.00 in 0 W/m2
20:44 59.1 °F 52.8 °F 30.17 in Calm     79.5% 0.00 in 0 W/m2
20:49 58.8 °F 52.6 °F 30.16 in Calm     80% 0.00 in 0 W/m2
20:54 58.5 °F 52.6 °F 30.17 in Calm     80.7% 0.00 in 0 W/m2
20:59 58.2 °F 52.4 °F 30.17 in Calm     81% 0.00 in 0 W/m2
21:04 57.9 °F 52.4 °F 30.17 in Calm     81.8% 0.00 in 0 W/m2
21:09 57.7 °F 52.3 °F 30.18 in Calm     82.3% 0.00 in 0 W/m2
21:14 57.4 °F 52.3 °F 30.18 in Calm     83% 0.00 in 0 W/m2
21:19 57.2 °F 52.1 °F 30.17 in Calm     83% 0.00 in 0 W/m2
21:24 57 °F 52.2 °F 30.18 in Calm     84% 0.00 in 0 W/m2
21:29 56.8 °F 52.1 °F 30.18 in Calm     84% 0.00 in 0 W/m2
21:34 56.7 °F 51.9 °F 30.18 in Calm     84.2% 0.00 in 0 W/m2
21:39 56.5 °F 52 °F 30.18 in Calm     85% 0.00 in 0 W/m2
21:44 56.3 °F 51.9 °F 30.18 in Calm     85% 0.00 in 0 W/m2
22:00 55.9 °F 51.8 °F 30.19 in Calm     86% 0.00 in 0 W/m2
22:30 55.3 °F 51.5 °F 30.18 in Calm     87% 0.00 in 0 W/m2
23:00 54.7 °F 51.5 °F 30.19 in Calm     89% 0.00 in 0 W/m2
23:30 53.9 °F 50.7 °F 30.19 in Calm     89% 0.00 in 0 W/m2
Hartford County Weather
Compliments of Weather Underground - 4 mb